Cruise Smeralda — IBNQ — position and weather

sailwx.info

Track history (hours):
 
Tides and Currents Weather Stations Pressure Air Temp Water Temp Dewpoint Dewpoint Depression Visibility Wind Speed Wind Dir Waves Ship Positions

Cruise Smeralda

Last reported at 2020-May-31 15:58 UTC. Time now 2020-May-31 17:22 UTC.
Position N 44°19' E 008°30'.

Length 200 m; draft 6 m.

Type: Ship. MMSI: 247343200.

Date/timePositionNaut miles runAvg speedWind from/ knotsBaromVisibWave heightAir tempDewpointWater temp
2020-May-31 15:58N 44°19' E 008°30'0 0.0
2020-May-31 15:28N 44°19' E 008°30'0 0.0
2020-May-31 14:28N 44°19' E 008°30'0 0.0
2020-May-31 13:28N 44°19' E 008°30'0 0.0
2020-May-31 12:28N 44°19' E 008°30'0 0.0
2020-May-31 10:58N 44°19' E 008°30'0 0.0
2020-May-31 09:28N 44°19' E 008°30'0 0.0
2020-May-31 07:28N 44°19' E 008°30'0 0.0
2020-May-31 06:28N 44°19' E 008°30'0 0.0
2020-May-31 03:58N 44°19' E 008°30'0 0.0
2020-May-31 02:58N 44°19' E 008°30'0 0.0
2020-May-31 00:58N 44°19' E 008°30'0 0.0
2020-May-30 22:28N 44°19' E 008°30'0 0.0
2020-May-30 21:28N 44°19' E 008°30'0 0.0
2020-May-30 20:28N 44°19' E 008°30'0 0.0
2020-May-30 19:58N 44°19' E 008°30'0 0.0
2020-May-30 19:28N 44°19' E 008°30'0 0.0
2020-May-30 18:28N 44°19' E 008°30'0 0.0
2020-May-30 17:28N 44°19' E 008°30'0 0.0
2020-May-30 16:28N 44°19' E 008°30'0 0.0
2020-May-30 14:28N 44°19' E 008°30'0 0.0
2020-May-30 07:28N 44°19' E 008°30'0 0.0
2020-May-30 05:28N 44°19' E 008°30'0 0.0
2020-May-30 02:58N 44°19' E 008°30'0 0.0
2020-May-30 02:28N 44°19' E 008°30'0 0.0
2020-May-29 22:58N 44°19' E 008°30'0 0.0
2020-May-29 19:28N 44°19' E 008°30'0 0.0
2020-May-29 18:28N 44°19' E 008°30'0 0.0
2020-May-29 17:28N 44°19' E 008°30'0 0.0
2020-May-29 15:58N 44°19' E 008°30'0 0.0
2020-May-29 13:58N 44°19' E 008°30'0 0.0
2020-May-29 10:58N 44°19' E 008°30'0 0.0
2020-May-29 05:55N 44°19' E 008°30'0 0.0
2020-May-29 05:28N 44°19' E 008°30'0 0.0
2020-May-29 04:58N 44°19' E 008°30'0 0.0
2020-May-29 02:58N 44°19' E 008°30'0 0.0
2020-May-29 01:58N 44°19' E 008°30'0 0.0
2020-May-29 00:28N 44°19' E 008°30'0 0.0
2020-May-28 21:28N 44°19' E 008°30'0 0.0
2020-May-28 20:28N 44°19' E 008°30'0 0.0
2020-May-28 20:00N 44°19' E 008°30'0 0.0
2020-May-28 18:58N 44°19' E 008°30'0 0.0
2020-May-28 16:28N 44°19' E 008°30'0 0.0
2020-May-28 13:28N 44°19' E 008°30'0 0.0
2020-May-28 12:00N 44°19' E 008°30'0 0.0
2020-May-28 11:00N 44°19' E 008°30'0 0.0
2020-May-28 10:30N 44°19' E 008°30'0 0.0
2020-May-28 07:00N 44°19' E 008°30'0 0.0
2020-May-28 04:58N 44°19' E 008°30'0 0.0
2020-May-28 00:30N 44°19' E 008°30'0 0.0
2020-May-27 22:30N 44°19' E 008°30'0 0.0
2020-May-27 21:30N 44°19' E 008°30'10 2.7
2020-May-27 18:01N 44°14' E 008°41'9 8.9
2020-May-27 17:01N 44°19' E 008°31'9 5.9
2020-May-27 15:31N 44°14' E 008°41'3 2.8
2020-May-27 14:30N 44°12' E 008°43'1 1.3
2020-May-27 13:30N 44°12' E 008°42'1 1.3
2020-May-27 13:01N 44°12' E 008°41'22 8.9
2020-May-27 10:30N 43°56' E 009°03'1020.5
2020-May-27 10:00N 43°49' E 009°13'2120.6
2020-May-27 09:01N 43°33' E 009°30'1020.1
2020-May-27 08:30N 43°25' E 009°39'713.6
2020-May-27 08:00N 43°20' E 009°46'28120.1
2020-May-26 17:59N 40°12' E 014°26'99 9.9
2020-May-26 07:59N 38°49' E 015°35'5 9.0
2020-May-26 07:28N 38°44' E 015°37'2114.1
2020-May-26 06:01N 38°24' E 015°43'14 1.4
2020-May-25 19:30N 38°12' E 015°34'0 0.0
2020-May-25 15:30N 38°12' E 015°34'0 0.0
2020-May-25 13:30N 38°12' E 015°34'0 0.0
2020-May-25 10:00N 38°12' E 015°34'0 0.0
2020-May-25 09:00N 38°12' E 015°34'0 0.0
2020-May-25 07:30N 38°12' E 015°34'0 0.0
2020-May-25 06:00N 38°12' E 015°34'0 0.0
2020-May-25 03:27N 38°12' E 015°34'0 0.0
2020-May-25 02:00N 38°12' E 015°34'0 0.0
2020-May-25 00:57N 38°12' E 015°34'0 0.0
2020-May-25 00:30N 38°12' E 015°34'0 0.0
2020-May-24 16:30N 38°12' E 015°34'0 0.0
2020-May-24 16:00N 38°12' E 015°34'0 0.0
2020-May-24 10:57N 38°12' E 015°34'0 0.0
2020-May-24 10:27N 38°12' E 015°34'0 0.0
2020-May-24 09:30N 38°12' E 015°34'0 0.0
2020-May-24 08:57N 38°12' E 015°34'0 0.0
2020-May-24 07:00N 38°12' E 015°34'0 0.0
2020-May-24 04:27N 38°12' E 015°34'0 0.0
2020-May-24 04:00N 38°12' E 015°34'0 0.0
2020-May-24 03:00N 38°12' E 015°34'0 0.0
2020-May-24 02:30N 38°12' E 015°34'0 0.0
2020-May-23 20:00N 38°12' E 015°34'0 0.0
2020-May-23 19:00N 38°12' E 015°34'0 0.0
2020-May-23 15:30N 38°12' E 015°34'0 0.0
2020-May-23 13:30N 38°12' E 015°34'0 0.0
2020-May-23 12:30N 38°12' E 015°34'0 0.0
2020-May-23 10:00N 38°12' E 015°34'0 0.0
2020-May-23 08:00N 38°12' E 015°34'0 0.0
2020-May-23 04:30N 38°12' E 015°34'0 0.0
2020-May-23 03:00N 38°12' E 015°34'0 0.0
2020-May-23 02:30N 38°12' E 015°34'0 0.0
2020-May-23 01:30N 38°12' E 015°34'0 0.0
2020-May-22 22:30N 38°12' E 015°34'0 0.0
2020-May-22 21:00N 38°12' E 015°34'0 0.0
2020-May-22 20:30N 38°12' E 015°34'0 0.0
2020-May-22 18:00N 38°12' E 015°34'0 0.0
2020-May-22 14:30N 38°12' E 015°34'0 0.0
2020-May-22 13:30N 38°12' E 015°34'0 0.0
2020-May-22 12:00N 38°12' E 015°34'0 0.0
2020-May-22 10:30N 38°12' E 015°34'0 0.0
2020-May-22 10:00N 38°12' E 015°34'0 0.0
2020-May-22 08:30N 38°12' E 015°34'0 0.0
2020-May-22 06:00N 38°12' E 015°34'0 0.0
2020-May-22 05:30N 38°12' E 015°34'0 0.0
2020-May-22 05:00N 38°12' E 015°34'0 0.0
2020-May-22 00:00N 38°12' E 015°34'0 0.0
2020-May-21 22:00N 38°12' E 015°34'0 0.0
2020-May-21 19:30N 38°12' E 015°34'0 0.0
2020-May-21 18:30N 38°12' E 015°34'0 0.0
2020-May-21 17:30N 38°12' E 015°34'0 0.0
2020-May-21 16:30N 38°12' E 015°34'  
Track history (hours):
 
Tides and Currents Weather Stations Pressure Air Temp Water Temp Dewpoint Dewpoint Depression Visibility Wind Speed Wind Dir Waves Ship Positions

Cruise Smeralda

Last reported at 2020-May-31 15:58 UTC. Time now 2020-May-31 17:22 UTC.
Position N 44°19' E 008°30'.

Length 200 m; draft 6 m.

Type: Ship. MMSI: 247343200.

Date/timePositionNaut miles runAvg speedWind from/ knotsBaromVisibWave heightAir tempDewpointWater temp
2020-May-31 15:58N 44°19' E 008°30'0 0.0
2020-May-31 15:28N 44°19' E 008°30'0 0.0
2020-May-31 14:28N 44°19' E 008°30'0 0.0
2020-May-31 13:28N 44°19' E 008°30'0 0.0
2020-May-31 12:28N 44°19' E 008°30'0 0.0
2020-May-31 10:58N 44°19' E 008°30'0 0.0
2020-May-31 09:28N 44°19' E 008°30'0 0.0
2020-May-31 07:28N 44°19' E 008°30'0 0.0
2020-May-31 06:28N 44°19' E 008°30'0 0.0
2020-May-31 03:58N 44°19' E 008°30'0 0.0
2020-May-31 02:58N 44°19' E 008°30'0 0.0
2020-May-31 00:58N 44°19' E 008°30'0 0.0
2020-May-30 22:28N 44°19' E 008°30'0 0.0
2020-May-30 21:28N 44°19' E 008°30'0 0.0
2020-May-30 20:28N 44°19' E 008°30'0 0.0
2020-May-30 19:58N 44°19' E 008°30'0 0.0
2020-May-30 19:28N 44°19' E 008°30'0 0.0
2020-May-30 18:28N 44°19' E 008°30'0 0.0
2020-May-30 17:28N 44°19' E 008°30'0 0.0
2020-May-30 16:28N 44°19' E 008°30'0 0.0
2020-May-30 14:28N 44°19' E 008°30'0 0.0
2020-May-30 07:28N 44°19' E 008°30'0 0.0
2020-May-30 05:28N 44°19' E 008°30'0 0.0
2020-May-30 02:58N 44°19' E 008°30'0 0.0
2020-May-30 02:28N 44°19' E 008°30'0 0.0
2020-May-29 22:58N 44°19' E 008°30'0 0.0
2020-May-29 19:28N 44°19' E 008°30'0 0.0
2020-May-29 18:28N 44°19' E 008°30'0 0.0
2020-May-29 17:28N 44°19' E 008°30'0 0.0
2020-May-29 15:58N 44°19' E 008°30'0 0.0
2020-May-29 13:58N 44°19' E 008°30'0 0.0
2020-May-29 10:58N 44°19' E 008°30'0 0.0
2020-May-29 05:55N 44°19' E 008°30'0 0.0
2020-May-29 05:28N 44°19' E 008°30'0 0.0
2020-May-29 04:58N 44°19' E 008°30'0 0.0
2020-May-29 02:58N 44°19' E 008°30'0 0.0
2020-May-29 01:58N 44°19' E 008°30'0 0.0
2020-May-29 00:28N 44°19' E 008°30'0 0.0
2020-May-28 21:28N 44°19' E 008°30'0 0.0
2020-May-28 20:28N 44°19' E 008°30'0 0.0
2020-May-28 20:00N 44°19' E 008°30'0 0.0
2020-May-28 18:58N 44°19' E 008°30'0 0.0
2020-May-28 16:28N 44°19' E 008°30'0 0.0
2020-May-28 13:28N 44°19' E 008°30'0 0.0
2020-May-28 12:00N 44°19' E 008°30'0 0.0
2020-May-28 11:00N 44°19' E 008°30'0 0.0
2020-May-28 10:30N 44°19' E 008°30'0 0.0
2020-May-28 07:00N 44°19' E 008°30'0 0.0
2020-May-28 04:58N 44°19' E 008°30'0 0.0
2020-May-28 00:30N 44°19' E 008°30'0 0.0
2020-May-27 22:30N 44°19' E 008°30'0 0.0
2020-May-27 21:30N 44°19' E 008°30'10 2.7
2020-May-27 18:01N 44°14' E 008°41'9 8.9
2020-May-27 17:01N 44°19' E 008°31'9 5.9
2020-May-27 15:31N 44°14' E 008°41'3 2.8
2020-May-27 14:30N 44°12' E 008°43'1 1.3
2020-May-27 13:30N 44°12' E 008°42'1 1.3
2020-May-27 13:01N 44°12' E 008°41'22 8.9
2020-May-27 10:30N 43°56' E 009°03'1020.5
2020-May-27 10:00N 43°49' E 009°13'2120.6
2020-May-27 09:01N 43°33' E 009°30'1020.1
2020-May-27 08:30N 43°25' E 009°39'713.6
2020-May-27 08:00N 43°20' E 009°46'28120.1
2020-May-26 17:59N 40°12' E 014°26'99 9.9
2020-May-26 07:59N 38°49' E 015°35'5 9.0
2020-May-26 07:28N 38°44' E 015°37'2114.1
2020-May-26 06:01N 38°24' E 015°43'14 1.4
2020-May-25 19:30N 38°12' E 015°34'0 0.0
2020-May-25 15:30N 38°12' E 015°34'0 0.0
2020-May-25 13:30N 38°12' E 015°34'0 0.0
2020-May-25 10:00N 38°12' E 015°34'0 0.0
2020-May-25 09:00N 38°12' E 015°34'0 0.0
2020-May-25 07:30N 38°12' E 015°34'0 0.0
2020-May-25 06:00N 38°12' E 015°34'0 0.0
2020-May-25 03:27N 38°12' E 015°34'0 0.0
2020-May-25 02:00N 38°12' E 015°34'0 0.0
2020-May-25 00:57N 38°12' E 015°34'0 0.0
2020-May-25 00:30N 38°12' E 015°34'0 0.0
2020-May-24 16:30N 38°12' E 015°34'0 0.0
2020-May-24 16:00N 38°12' E 015°34'0 0.0
2020-May-24 10:57N 38°12' E 015°34'0 0.0
2020-May-24 10:27N 38°12' E 015°34'0 0.0
2020-May-24 09:30N 38°12' E 015°34'0 0.0
2020-May-24 08:57N 38°12' E 015°34'0 0.0
2020-May-24 07:00N 38°12' E 015°34'0 0.0
2020-May-24 04:27N 38°12' E 015°34'0 0.0
2020-May-24 04:00N 38°12' E 015°34'0 0.0
2020-May-24 03:00N 38°12' E 015°34'0 0.0
2020-May-24 02:30N 38°12' E 015°34'0 0.0
2020-May-23 20:00N 38°12' E 015°34'0 0.0
2020-May-23 19:00N 38°12' E 015°34'0 0.0
2020-May-23 15:30N 38°12' E 015°34'0 0.0
2020-May-23 13:30N 38°12' E 015°34'0 0.0
2020-May-23 12:30N 38°12' E 015°34'0 0.0
2020-May-23 10:00N 38°12' E 015°34'0 0.0
2020-May-23 08:00N 38°12' E 015°34'0 0.0
2020-May-23 04:30N 38°12' E 015°34'0 0.0
2020-May-23 03:00N 38°12' E 015°34'0 0.0
2020-May-23 02:30N 38°12' E 015°34'0 0.0
2020-May-23 01:30N 38°12' E 015°34'0 0.0
2020-May-22 22:30N 38°12' E 015°34'0 0.0
2020-May-22 21:00N 38°12' E 015°34'0 0.0
2020-May-22 20:30N 38°12' E 015°34'0 0.0
2020-May-22 18:00N 38°12' E 015°34'0 0.0
2020-May-22 14:30N 38°12' E 015°34'0 0.0
2020-May-22 13:30N 38°12' E 015°34'0 0.0
2020-May-22 12:00N 38°12' E 015°34'0 0.0
2020-May-22 10:30N 38°12' E 015°34'0 0.0
2020-May-22 10:00N 38°12' E 015°34'0 0.0
2020-May-22 08:30N 38°12' E 015°34'0 0.0
2020-May-22 06:00N 38°12' E 015°34'0 0.0
2020-May-22 05:30N 38°12' E 015°34'0 0.0
2020-May-22 05:00N 38°12' E 015°34'0 0.0
2020-May-22 00:00N 38°12' E 015°34'0 0.0
2020-May-21 22:00N 38°12' E 015°34'0 0.0
2020-May-21 19:30N 38°12' E 015°34'0 0.0
2020-May-21 18:30N 38°12' E 015°34'0 0.0
2020-May-21 17:30N 38°12' E 015°34'0 0.0
2020-May-21 16:30N 38°12' E 015°34'  

Dump ship's entire track history